sensor_id;sensor_type;location;lat;lon;timestamp;temperature;humidity
11264;DHT22;5689;48.798;9.070;2022-07-24T00:01:08;21.80;99.90
11264;DHT22;5689;48.798;9.070;2022-07-24T00:03:36;21.70;99.90
11264;DHT22;5689;48.798;9.070;2022-07-24T00:06:05;21.80;99.90
11264;DHT22;5689;48.798;9.070;2022-07-24T00:08:33;21.80;99.90
11264;DHT22;5689;48.798;9.070;2022-07-24T00:11:01;21.70;99.90
11264;DHT22;5689;48.798;9.070;2022-07-24T00:13:29;21.70;99.90
11264;DHT22;5689;48.798;9.070;2022-07-24T00:15:58;21.80;99.90
11264;DHT22;5689;48.798;9.070;2022-07-24T00:18:27;21.80;99.90
11264;DHT22;5689;48.798;9.070;2022-07-24T00:20:55;21.90;99.90
11264;DHT22;5689;48.798;9.070;2022-07-24T00:23:23;21.70;99.90
11264;DHT22;5689;48.798;9.070;2022-07-24T00:25:51;21.70;99.90
11264;DHT22;5689;48.798;9.070;2022-07-24T00:28:19;21.70;99.90
11264;DHT22;5689;48.798;9.070;2022-07-24T00:30:47;21.80;99.90
11264;DHT22;5689;48.798;9.070;2022-07-24T00:33:17;22.10;99.90
11264;DHT22;5689;48.798;9.070;2022-07-24T00:35:45;22.20;99.90
11264;DHT22;5689;48.798;9.070;2022-07-24T00:38:13;22.10;99.90
11264;DHT22;5689;48.798;9.070;2022-07-24T00:40:41;22.00;99.90
11264;DHT22;5689;48.798;9.070;2022-07-24T00:43:10;21.90;99.90
11264;DHT22;5689;48.798;9.070;2022-07-24T00:45:38;21.80;99.90
11264;DHT22;5689;48.798;9.070;2022-07-24T00:48:06;21.80;99.90
11264;DHT22;5689;48.798;9.070;2022-07-24T00:50:36;22.00;99.90
11264;DHT22;5689;48.798;9.070;2022-07-24T00:53:04;22.00;99.90
11264;DHT22;5689;48.798;9.070;2022-07-24T00:55:33;22.00;99.90
11264;DHT22;5689;48.798;9.070;2022-07-24T00:58:01;22.00;99.90
11264;DHT22;5689;48.798;9.070;2022-07-24T01:00:29;22.10;99.90
11264;DHT22;5689;48.798;9.070;2022-07-24T01:02:57;22.00;99.90
11264;DHT22;5689;48.798;9.070;2022-07-24T01:05:26;21.80;99.90
11264;DHT22;5689;48.798;9.070;2022-07-24T01:07:55;21.70;99.90
11264;DHT22;5689;48.798;9.070;2022-07-24T01:10:23;21.70;99.90
11264;DHT22;5689;48.798;9.070;2022-07-24T01:12:51;21.60;99.90
11264;DHT22;5689;48.798;9.070;2022-07-24T01:15:19;21.60;99.90
11264;DHT22;5689;48.798;9.070;2022-07-24T01:17:47;21.50;99.90
11264;DHT22;5689;48.798;9.070;2022-07-24T01:20:15;21.50;99.90
11264;DHT22;5689;48.798;9.070;2022-07-24T01:22:45;21.60;99.90
11264;DHT22;5689;48.798;9.070;2022-07-24T01:25:13;21.70;99.90
11264;DHT22;5689;48.798;9.070;2022-07-24T01:27:41;21.50;99.90
11264;DHT22;5689;48.798;9.070;2022-07-24T01:30:09;21.50;99.90
11264;DHT22;5689;48.798;9.070;2022-07-24T01:32:38;21.30;99.90
11264;DHT22;5689;48.798;9.070;2022-07-24T01:35:06;21.20;99.90
11264;DHT22;5689;48.798;9.070;2022-07-24T01:37:34;21.20;99.90
11264;DHT22;5689;48.798;9.070;2022-07-24T01:40:05;21.20;99.90
11264;DHT22;5689;48.798;9.070;2022-07-24T01:42:33;21.30;99.90
11264;DHT22;5689;48.798;9.070;2022-07-24T01:45:01;21.20;99.90
11264;DHT22;5689;48.798;9.070;2022-07-24T01:47:29;21.00;99.90
11264;DHT22;5689;48.798;9.070;2022-07-24T01:49:57;20.90;99.90
11264;DHT22;5689;48.798;9.070;2022-07-24T01:52:25;20.80;99.90
11264;DHT22;5689;48.798;9.070;2022-07-24T01:54:53;20.90;99.90
11264;DHT22;5689;48.798;9.070;2022-07-24T01:57:22;21.00;99.90
11264;DHT22;5689;48.798;9.070;2022-07-24T01:59:50;20.90;99.90
11264;DHT22;5689;48.798;9.070;2022-07-24T02:02:18;20.80;99.90
11264;DHT22;5689;48.798;9.070;2022-07-24T02:04:46;20.90;99.90
11264;DHT22;5689;48.798;9.070;2022-07-24T02:07:14;20.70;99.90
11264;DHT22;5689;48.798;9.070;2022-07-24T02:09:42;20.60;99.90
11264;DHT22;5689;48.798;9.070;2022-07-24T02:12:10;20.50;99.90
11264;DHT22;5689;48.798;9.070;2022-07-24T02:14:40;20.50;99.90
11264;DHT22;5689;48.798;9.070;2022-07-24T02:17:08;20.50;99.90
11264;DHT22;5689;48.798;9.070;2022-07-24T02:19:36;20.50;99.90
11264;DHT22;5689;48.798;9.070;2022-07-24T02:22:04;20.50;99.90
11264;DHT22;5689;48.798;9.070;2022-07-24T02:24:32;20.70;99.90
11264;DHT22;5689;48.798;9.070;2022-07-24T02:27:00;20.70;99.90
11264;DHT22;5689;48.798;9.070;2022-07-24T02:29:29;20.60;99.90
11264;DHT22;5689;48.798;9.070;2022-07-24T02:31:58;20.60;99.90
11264;DHT22;5689;48.798;9.070;2022-07-24T02:34:26;20.40;99.90
11264;DHT22;5689;48.798;9.070;2022-07-24T02:36:54;20.30;99.90
11264;DHT22;5689;48.798;9.070;2022-07-24T02:39:22;20.30;99.90
11264;DHT22;5689;48.798;9.070;2022-07-24T02:41:50;20.20;99.90
11264;DHT22;5689;48.798;9.070;2022-07-24T02:44:18;20.30;99.90
11264;DHT22;5689;48.798;9.070;2022-07-24T02:46:46;20.10;99.90
11264;DHT22;5689;48.798;9.070;2022-07-24T02:49:16;20.00;99.90
11264;DHT22;5689;48.798;9.070;2022-07-24T02:51:44;20.10;99.90
11264;DHT22;5689;48.798;9.070;2022-07-24T02:54:12;19.90;99.90
11264;DHT22;5689;48.798;9.070;2022-07-24T02:56:40;19.80;99.90
11264;DHT22;5689;48.798;9.070;2022-07-24T02:59:08;19.80;99.90
11264;DHT22;5689;48.798;9.070;2022-07-24T03:01:36;19.90;99.90
11264;DHT22;5689;48.798;9.070;2022-07-24T03:04:04;19.90;99.90
11264;DHT22;5689;48.798;9.070;2022-07-24T03:06:33;19.90;99.90
11264;DHT22;5689;48.798;9.070;2022-07-24T03:09:02;19.80;99.90
11264;DHT22;5689;48.798;9.070;2022-07-24T03:11:31;19.70;99.90
11264;DHT22;5689;48.798;9.070;2022-07-24T03:13:59;19.70;99.90
11264;DHT22;5689;48.798;9.070;2022-07-24T03:16:27;19.50;99.90
11264;DHT22;5689;48.798;9.070;2022-07-24T03:18:55;19.40;99.90
11264;DHT22;5689;48.798;9.070;2022-07-24T03:21:23;19.30;99.90
11264;DHT22;5689;48.798;9.070;2022-07-24T03:24:05;19.40;99.90
11264;DHT22;5689;48.798;9.070;2022-07-24T03:26:33;19.50;99.90
11264;DHT22;5689;48.798;9.070;2022-07-24T03:29:01;19.40;99.90
11264;DHT22;5689;48.798;9.070;2022-07-24T03:31:29;19.30;99.90
11264;DHT22;5689;48.798;9.070;2022-07-24T03:33:57;19.10;99.90
11264;DHT22;5689;48.798;9.070;2022-07-24T03:36:25;19.00;99.90
11264;DHT22;5689;48.798;9.070;2022-07-24T03:38:53;19.10;99.90
11264;DHT22;5689;48.798;9.070;2022-07-24T03:41:22;19.00;99.90
11264;DHT22;5689;48.798;9.070;2022-07-24T03:43:50;19.10;99.90
11264;DHT22;5689;48.798;9.070;2022-07-24T03:46:19;19.30;99.90
11264;DHT22;5689;48.798;9.070;2022-07-24T03:51:43;19.00;99.90
11264;DHT22;5689;48.798;9.070;2022-07-24T03:54:11;19.00;99.90
11264;DHT22;5689;48.798;9.070;2022-07-24T03:56:40;19.00;99.90
11264;DHT22;5689;48.798;9.070;2022-07-24T03:59:08;18.90;99.90
11264;DHT22;5689;48.798;9.070;2022-07-24T04:01:36;19.00;99.90
11264;DHT22;5689;48.798;9.070;2022-07-24T04:04:04;18.90;99.90
11264;DHT22;5689;48.798;9.070;2022-07-24T04:06:32;19.00;99.90
11264;DHT22;5689;48.798;9.070;2022-07-24T04:09:01;19.10;99.90
11264;DHT22;5689;48.798;9.070;2022-07-24T04:11:32;19.00;99.90
11264;DHT22;5689;48.798;9.070;2022-07-24T04:14:02;19.00;99.90
11264;DHT22;5689;48.798;9.070;2022-07-24T04:16:30;18.90;99.90
11264;DHT22;5689;48.798;9.070;2022-07-24T04:18:58;18.90;99.90
11264;DHT22;5689;48.798;9.070;2022-07-24T04:21:29;19.10;99.90
11264;DHT22;5689;48.798;9.070;2022-07-24T04:23:57;19.20;99.90
11264;DHT22;5689;48.798;9.070;2022-07-24T04:26:25;19.40;99.90
11264;DHT22;5689;48.798;9.070;2022-07-24T04:28:53;19.50;99.90
11264;DHT22;5689;48.798;9.070;2022-07-24T04:31:22;19.40;99.90
11264;DHT22;5689;48.798;9.070;2022-07-24T04:33:51;19.50;99.90
11264;DHT22;5689;48.798;9.070;2022-07-24T04:36:19;19.50;99.90
11264;DHT22;5689;48.798;9.070;2022-07-24T04:38:50;19.50;99.90
11264;DHT22;5689;48.798;9.070;2022-07-24T04:41:20;19.60;99.90
11264;DHT22;5689;48.798;9.070;2022-07-24T04:43:48;19.50;99.90
11264;DHT22;5689;48.798;9.070;2022-07-24T04:46:16;19.40;99.90
11264;DHT22;5689;48.798;9.070;2022-07-24T04:48:45;19.40;99.90
11264;DHT22;5689;48.798;9.070;2022-07-24T04:51:14;19.30;99.90
11264;DHT22;5689;48.798;9.070;2022-07-24T04:53:42;19.40;99.90
11264;DHT22;5689;48.798;9.070;2022-07-24T04:56:10;19.60;99.90
11264;DHT22;5689;48.798;9.070;2022-07-24T04:58:38;19.80;99.90
11264;DHT22;5689;48.798;9.070;2022-07-24T05:01:06;20.00;99.90
11264;DHT22;5689;48.798;9.070;2022-07-24T05:03:34;20.20;99.90
11264;DHT22;5689;48.798;9.070;2022-07-24T05:06:03;20.30;99.90
11264;DHT22;5689;48.798;9.070;2022-07-24T05:08:31;20.30;99.90
11264;DHT22;5689;48.798;9.070;2022-07-24T05:11:15;20.30;99.90
11264;DHT22;5689;48.798;9.070;2022-07-24T05:13:43;20.30;99.90
11264;DHT22;5689;48.798;9.070;2022-07-24T05:16:12;20.50;99.90
11264;DHT22;5689;48.798;9.070;2022-07-24T05:18:40;20.50;99.90
11264;DHT22;5689;48.798;9.070;2022-07-24T05:21:10;20.50;99.90
11264;DHT22;5689;48.798;9.070;2022-07-24T05:23:38;20.80;99.90
11264;DHT22;5689;48.798;9.070;2022-07-24T05:26:06;21.30;99.90
11264;DHT22;5689;48.798;9.070;2022-07-24T05:28:34;22.00;99.90
11264;DHT22;5689;48.798;9.070;2022-07-24T05:31:02;22.40;99.90
11264;DHT22;5689;48.798;9.070;2022-07-24T05:33:30;22.50;99.90
11264;DHT22;5689;48.798;9.070;2022-07-24T05:35:59;23.00;99.90
11264;DHT22;5689;48.798;9.070;2022-07-24T05:38:29;23.40;99.90
11264;DHT22;5689;48.798;9.070;2022-07-24T05:40:57;23.50;99.90
11264;DHT22;5689;48.798;9.070;2022-07-24T05:43:25;23.20;99.90
11264;DHT22;5689;48.798;9.070;2022-07-24T05:45:53;23.00;99.90
11264;DHT22;5689;48.798;9.070;2022-07-24T05:48:21;23.20;99.90
11264;DHT22;5689;48.798;9.070;2022-07-24T05:50:49;23.60;99.90
11264;DHT22;5689;48.798;9.070;2022-07-24T05:53:17;23.80;99.90
11264;DHT22;5689;48.798;9.070;2022-07-24T05:55:46;24.00;99.90
11264;DHT22;5689;48.798;9.070;2022-07-24T05:58:14;24.10;99.90
11264;DHT22;5689;48.798;9.070;2022-07-24T06:00:43;24.30;99.90
11264;DHT22;5689;48.798;9.070;2022-07-24T06:03:11;24.40;99.90
11264;DHT22;5689;48.798;9.070;2022-07-24T06:05:39;24.70;99.90
11264;DHT22;5689;48.798;9.070;2022-07-24T06:08:07;25.10;99.90
11264;DHT22;5689;48.798;9.070;2022-07-24T06:10:37;24.40;99.90
11264;DHT22;5689;48.798;9.070;2022-07-24T06:13:07;24.40;99.90
11264;DHT22;5689;48.798;9.070;2022-07-24T06:15:35;24.60;99.90
11264;DHT22;5689;48.798;9.070;2022-07-24T06:18:05;25.10;99.90
11264;DHT22;5689;48.798;9.070;2022-07-24T06:20:33;25.30;99.90
11264;DHT22;5689;48.798;9.070;2022-07-24T06:23:01;25.60;99.90
11264;DHT22;5689;48.798;9.070;2022-07-24T06:25:29;26.20;99.90
11264;DHT22;5689;48.798;9.070;2022-07-24T06:27:57;26.50;99.90
11264;DHT22;5689;48.798;9.070;2022-07-24T06:30:27;26.80;99.90
11264;DHT22;5689;48.798;9.070;2022-07-24T06:32:58;27.20;99.90
11264;DHT22;5689;48.798;9.070;2022-07-24T06:35:27;26.70;99.90
11264;DHT22;5689;48.798;9.070;2022-07-24T06:37:59;27.20;99.90
11264;DHT22;5689;48.798;9.070;2022-07-24T06:40:28;27.50;99.70
11264;DHT22;5689;48.798;9.070;2022-07-24T06:42:56;27.80;99.00
11264;DHT22;5689;48.798;9.070;2022-07-24T06:45:24;27.30;98.90
11264;DHT22;5689;48.798;9.070;2022-07-24T06:47:53;27.30;99.60
11264;DHT22;5689;48.798;9.070;2022-07-24T06:50:21;27.10;99.90
11264;DHT22;5689;48.798;9.070;2022-07-24T06:52:49;27.40;99.20
11264;DHT22;5689;48.798;9.070;2022-07-24T06:55:17;27.90;98.70
11264;DHT22;5689;48.798;9.070;2022-07-24T06:57:45;28.50;96.90
11264;DHT22;5689;48.798;9.070;2022-07-24T07:00:13;28.90;95.90
11264;DHT22;5689;48.798;9.070;2022-07-24T07:02:41;28.20;97.10
11264;DHT22;5689;48.798;9.070;2022-07-24T07:05:11;28.30;96.40
11264;DHT22;5689;48.798;9.070;2022-07-24T07:07:39;28.30;96.70
11264;DHT22;5689;48.798;9.070;2022-07-24T07:10:07;28.90;95.10
11264;DHT22;5689;48.798;9.070;2022-07-24T07:12:36;29.30;95.10
11264;DHT22;5689;48.798;9.070;2022-07-24T07:15:07;29.50;94.10
11264;DHT22;5689;48.798;9.070;2022-07-24T07:17:37;29.20;94.10
11264;DHT22;5689;48.798;9.070;2022-07-24T07:20:07;29.70;92.90
11264;DHT22;5689;48.798;9.070;2022-07-24T07:22:36;29.80;92.70
11264;DHT22;5689;48.798;9.070;2022-07-24T07:25:05;30.00;91.30
11264;DHT22;5689;48.798;9.070;2022-07-24T07:27:33;29.70;91.50
11264;DHT22;5689;48.798;9.070;2022-07-24T07:30:03;29.60;90.70
11264;DHT22;5689;48.798;9.070;2022-07-24T07:32:31;29.90;90.80
11264;DHT22;5689;48.798;9.070;2022-07-24T07:35:00;30.50;89.80
11264;DHT22;5689;48.798;9.070;2022-07-24T07:37:28;30.40;90.10
11264;DHT22;5689;48.798;9.070;2022-07-24T07:39:57;30.20;90.60
11264;DHT22;5689;48.798;9.070;2022-07-24T07:42:25;30.80;88.40
11264;DHT22;5689;48.798;9.070;2022-07-24T07:44:54;32.30;82.70
11264;DHT22;5689;48.798;9.070;2022-07-24T07:47:22;31.90;83.50
11264;DHT22;5689;48.798;9.070;2022-07-24T07:49:50;32.70;80.70
11264;DHT22;5689;48.798;9.070;2022-07-24T07:52:18;33.00;79.70
11264;DHT22;5689;48.798;9.070;2022-07-24T07:54:46;32.90;79.90
11264;DHT22;5689;48.798;9.070;2022-07-24T07:57:15;33.10;78.90
11264;DHT22;5689;48.798;9.070;2022-07-24T07:59:43;33.20;78.70
11264;DHT22;5689;48.798;9.070;2022-07-24T08:02:11;32.70;77.10
11264;DHT22;5689;48.798;9.070;2022-07-24T08:04:39;33.10;76.00
11264;DHT22;5689;48.798;9.070;2022-07-24T08:07:07;33.00;75.70
11264;DHT22;5689;48.798;9.070;2022-07-24T08:09:35;33.30;74.70
11264;DHT22;5689;48.798;9.070;2022-07-24T08:12:04;33.90;74.60
11264;DHT22;5689;48.798;9.070;2022-07-24T08:14:34;33.10;74.60
11264;DHT22;5689;48.798;9.070;2022-07-24T08:17:02;31.40;78.20
11264;DHT22;5689;48.798;9.070;2022-07-24T08:19:30;32.40;76.80
11264;DHT22;5689;48.798;9.070;2022-07-24T08:21:58;33.00;74.90
11264;DHT22;5689;48.798;9.070;2022-07-24T08:24:26;32.00;75.70
11264;DHT22;5689;48.798;9.070;2022-07-24T08:26:54;33.80;74.40
11264;DHT22;5689;48.798;9.070;2022-07-24T08:29:22;34.60;70.60
11264;DHT22;5689;48.798;9.070;2022-07-24T08:31:52;32.90;74.30
11264;DHT22;5689;48.798;9.070;2022-07-24T08:34:20;33.50;72.80
11264;DHT22;5689;48.798;9.070;2022-07-24T08:36:49;33.90;71.20
11264;DHT22;5689;48.798;9.070;2022-07-24T08:39:17;33.40;70.80
11264;DHT22;5689;48.798;9.070;2022-07-24T08:41:45;33.90;69.80
11264;DHT22;5689;48.798;9.070;2022-07-24T08:44:13;35.70;66.50
11264;DHT22;5689;48.798;9.070;2022-07-24T08:46:41;34.30;67.60
11264;DHT22;5689;48.798;9.070;2022-07-24T08:49:14;35.40;65.30
11264;DHT22;5689;48.798;9.070;2022-07-24T08:51:43;35.80;64.90
11264;DHT22;5689;48.798;9.070;2022-07-24T08:54:11;34.20;65.30
11264;DHT22;5689;48.798;9.070;2022-07-24T08:56:39;32.70;70.40
11264;DHT22;5689;48.798;9.070;2022-07-24T08:59:15;30.30;75.20
11264;DHT22;5689;48.798;9.070;2022-07-24T09:01:47;29.70;78.00
11264;DHT22;5689;48.798;9.070;2022-07-24T09:04:37;30.10;76.00
11264;DHT22;5689;48.798;9.070;2022-07-24T09:07:07;29.50;78.80
11264;DHT22;5689;48.798;9.070;2022-07-24T09:09:36;29.30;78.70
11264;DHT22;5689;48.798;9.070;2022-07-24T09:12:06;29.80;77.50
11264;DHT22;5689;48.798;9.070;2022-07-24T09:14:37;29.50;78.30
11264;DHT22;5689;48.798;9.070;2022-07-24T09:17:07;29.50;79.90
11264;DHT22;5689;48.798;9.070;2022-07-24T09:19:58;31.30;75.90
11264;DHT22;5689;48.798;9.070;2022-07-24T09:22:35;33.40;71.30
11264;DHT22;5689;48.798;9.070;2022-07-24T09:25:08;33.20;70.00
11264;DHT22;5689;48.798;9.070;2022-07-24T09:27:38;34.00;68.90
11264;DHT22;5689;48.798;9.070;2022-07-24T09:30:07;35.10;67.40
11264;DHT22;5689;48.798;9.070;2022-07-24T09:32:38;36.00;65.20
11264;DHT22;5689;48.798;9.070;2022-07-24T09:35:09;36.20;62.80
11264;DHT22;5689;48.798;9.070;2022-07-24T09:37:37;36.70;62.20
11264;DHT22;5689;48.798;9.070;2022-07-24T09:40:08;36.70;59.40
11264;DHT22;5689;48.798;9.070;2022-07-24T09:42:36;34.70;62.60
11264;DHT22;5689;48.798;9.070;2022-07-24T09:45:08;34.90;63.40
11264;DHT22;5689;48.798;9.070;2022-07-24T09:47:38;33.70;64.90
11264;DHT22;5689;48.798;9.070;2022-07-24T09:50:16;32.70;67.40
11264;DHT22;5689;48.798;9.070;2022-07-24T09:52:45;32.30;68.20
11264;DHT22;5689;48.798;9.070;2022-07-24T09:55:23;31.10;71.40
11264;DHT22;5689;48.798;9.070;2022-07-24T09:57:52;30.10;73.00
11264;DHT22;5689;48.798;9.070;2022-07-24T10:00:21;29.70;73.80
11264;DHT22;5689;48.798;9.070;2022-07-24T10:02:49;30.40;72.50
11264;DHT22;5689;48.798;9.070;2022-07-24T10:05:21;30.30;72.80
11264;DHT22;5689;48.798;9.070;2022-07-24T10:07:55;30.40;72.80
11264;DHT22;5689;48.798;9.070;2022-07-24T10:10:26;30.50;73.00
11264;DHT22;5689;48.798;9.070;2022-07-24T10:12:54;30.10;73.20
11264;DHT22;5689;48.798;9.070;2022-07-24T10:15:23;29.60;74.80
11264;DHT22;5689;48.798;9.070;2022-07-24T10:18:14;29.60;74.80
11264;DHT22;5689;48.798;9.070;2022-07-24T10:20:45;30.10;73.60
11264;DHT22;5689;48.798;9.070;2022-07-24T10:23:24;30.00;74.20
11264;DHT22;5689;48.798;9.070;2022-07-24T10:26:03;31.00;72.80
11264;DHT22;5689;48.798;9.070;2022-07-24T10:28:36;32.30;69.10
11264;DHT22;5689;48.798;9.070;2022-07-24T10:31:07;31.30;70.60
11264;DHT22;5689;48.798;9.070;2022-07-24T10:33:36;30.40;72.10
11264;DHT22;5689;48.798;9.070;2022-07-24T10:36:15;30.80;71.30
11264;DHT22;5689;48.798;9.070;2022-07-24T10:38:53;31.00;70.30
11264;DHT22;5689;48.798;9.070;2022-07-24T10:41:25;31.30;68.00
11264;DHT22;5689;48.798;9.070;2022-07-24T10:44:13;32.10;67.80
11264;DHT22;5689;48.798;9.070;2022-07-24T10:47:03;34.30;65.10
11264;DHT22;5689;48.798;9.070;2022-07-24T10:49:43;35.60;62.20
11264;DHT22;5689;48.798;9.070;2022-07-24T10:52:23;37.70;56.90
11264;DHT22;5689;48.798;9.070;2022-07-24T10:55:23;38.60;55.40
11264;DHT22;5689;48.798;9.070;2022-07-24T10:57:56;35.70;59.70
11264;DHT22;5689;48.798;9.070;2022-07-24T11:00:26;36.70;58.00
11264;DHT22;5689;48.798;9.070;2022-07-24T11:02:56;37.80;57.40
11264;DHT22;5689;48.798;9.070;2022-07-24T11:05:30;37.30;57.30
11264;DHT22;5689;48.798;9.070;2022-07-24T11:08:30;40.60;52.80
11264;DHT22;5689;48.798;9.070;2022-07-24T11:11:09;38.50;53.30
11264;DHT22;5689;48.798;9.070;2022-07-24T11:13:49;39.90;52.40
11264;DHT22;5689;48.798;9.070;2022-07-24T11:19:25;39.50;52.60
11264;DHT22;5689;48.798;9.070;2022-07-24T11:22:07;41.20;51.50
11264;DHT22;5689;48.798;9.070;2022-07-24T11:24:40;40.90;51.00
11264;DHT22;5689;48.798;9.070;2022-07-24T11:27:16;39.40;51.80
11264;DHT22;5689;48.798;9.070;2022-07-24T11:29:44;40.80;50.30
11264;DHT22;5689;48.798;9.070;2022-07-24T11:32:14;40.60;50.50
11264;DHT22;5689;48.798;9.070;2022-07-24T11:34:46;42.60;48.00
11264;DHT22;5689;48.798;9.070;2022-07-24T11:37:14;40.80;49.10
11264;DHT22;5689;48.798;9.070;2022-07-24T11:39:44;41.80;49.00
11264;DHT22;5689;48.798;9.070;2022-07-24T11:42:15;41.00;48.50
11264;DHT22;5689;48.798;9.070;2022-07-24T11:44:45;38.90;50.90
11264;DHT22;5689;48.798;9.070;2022-07-24T11:47:15;37.20;52.40
11264;DHT22;5689;48.798;9.070;2022-07-24T11:49:45;36.10;55.20
11264;DHT22;5689;48.798;9.070;2022-07-24T11:52:15;37.70;54.00
11264;DHT22;5689;48.798;9.070;2022-07-24T11:54:46;39.30;51.60
11264;DHT22;5689;48.798;9.070;2022-07-24T11:57:29;40.60;48.70
11264;DHT22;5689;48.798;9.070;2022-07-24T12:00:22;39.60;50.60
11264;DHT22;5689;48.798;9.070;2022-07-24T12:02:54;40.90;49.60
11264;DHT22;5689;48.798;9.070;2022-07-24T12:05:24;37.30;52.80
11264;DHT22;5689;48.798;9.070;2022-07-24T12:07:54;35.60;55.00
11264;DHT22;5689;48.798;9.070;2022-07-24T12:10:24;35.90;56.00
11264;DHT22;5689;48.798;9.070;2022-07-24T12:12:54;39.40;50.80
11264;DHT22;5689;48.798;9.070;2022-07-24T12:15:23;41.50;47.80
11264;DHT22;5689;48.798;9.070;2022-07-24T12:17:55;38.90;51.60
11264;DHT22;5689;48.798;9.070;2022-07-24T12:20:24;40.80;49.60
11264;DHT22;5689;48.798;9.070;2022-07-24T12:22:53;40.60;49.20
11264;DHT22;5689;48.798;9.070;2022-07-24T12:25:24;43.20;46.60
11264;DHT22;5689;48.798;9.070;2022-07-24T12:28:02;43.30;46.10
11264;DHT22;5689;48.798;9.070;2022-07-24T12:30:32;41.80;47.20
11264;DHT22;5689;48.798;9.070;2022-07-24T12:33:02;41.60;46.50
11264;DHT22;5689;48.798;9.070;2022-07-24T12:35:31;41.10;48.10
11264;DHT22;5689;48.798;9.070;2022-07-24T12:38:01;41.20;47.50
11264;DHT22;5689;48.798;9.070;2022-07-24T12:40:34;42.80;45.70
11264;DHT22;5689;48.798;9.070;2022-07-24T12:43:07;43.50;43.90
11264;DHT22;5689;48.798;9.070;2022-07-24T12:45:35;40.60;47.50
11264;DHT22;5689;48.798;9.070;2022-07-24T12:48:18;39.40;49.10
11264;DHT22;5689;48.798;9.070;2022-07-24T12:51:02;41.50;46.20
11264;DHT22;5689;48.798;9.070;2022-07-24T12:53:32;44.50;42.80
11264;DHT22;5689;48.798;9.070;2022-07-24T12:56:08;45.10;42.60
11264;DHT22;5689;48.798;9.070;2022-07-24T12:58:57;43.00;44.70
11264;DHT22;5689;48.798;9.070;2022-07-24T13:01:27;41.40;46.60
11264;DHT22;5689;48.798;9.070;2022-07-24T13:03:58;41.50;45.80
11264;DHT22;5689;48.798;9.070;2022-07-24T13:06:38;39.80;47.80
11264;DHT22;5689;48.798;9.070;2022-07-24T13:09:08;40.80;47.40
11264;DHT22;5689;48.798;9.070;2022-07-24T13:11:38;42.50;45.10
11264;DHT22;5689;48.798;9.070;2022-07-24T13:14:08;41.10;46.80
11264;DHT22;5689;48.798;9.070;2022-07-24T13:16:38;41.90;45.60
11264;DHT22;5689;48.798;9.070;2022-07-24T13:19:07;40.70;46.90
11264;DHT22;5689;48.798;9.070;2022-07-24T13:21:37;38.70;49.50
11264;DHT22;5689;48.798;9.070;2022-07-24T13:24:07;38.70;50.80
11264;DHT22;5689;48.798;9.070;2022-07-24T13:26:37;40.60;47.00
11264;DHT22;5689;48.798;9.070;2022-07-24T13:29:06;40.30;47.10
11264;DHT22;5689;48.798;9.070;2022-07-24T13:31:34;39.50;48.40
11264;DHT22;5689;48.798;9.070;2022-07-24T13:34:03;40.00;47.40
11264;DHT22;5689;48.798;9.070;2022-07-24T13:36:32;39.20;48.00
11264;DHT22;5689;48.798;9.070;2022-07-24T13:39:01;37.50;50.10
11264;DHT22;5689;48.798;9.070;2022-07-24T13:41:30;36.50;50.90
11264;DHT22;5689;48.798;9.070;2022-07-24T13:44:00;34.80;52.40
11264;DHT22;5689;48.798;9.070;2022-07-24T13:46:31;35.00;53.90
11264;DHT22;5689;48.798;9.070;2022-07-24T13:49:00;34.90;53.60
11264;DHT22;5689;48.798;9.070;2022-07-24T13:51:29;35.40;53.00
11264;DHT22;5689;48.798;9.070;2022-07-24T13:53:57;37.30;50.80
11264;DHT22;5689;48.798;9.070;2022-07-24T13:56:26;38.70;48.20
11264;DHT22;5689;48.798;9.070;2022-07-24T13:58:56;40.00;46.90
11264;DHT22;5689;48.798;9.070;2022-07-24T14:01:26;40.50;47.40
11264;DHT22;5689;48.798;9.070;2022-07-24T14:03:54;40.00;48.30
11264;DHT22;5689;48.798;9.070;2022-07-24T14:06:41;42.40;45.60
11264;DHT22;5689;48.798;9.070;2022-07-24T14:09:09;43.40;42.60
11264;DHT22;5689;48.798;9.070;2022-07-24T14:11:36;42.20;43.30
11264;DHT22;5689;48.798;9.070;2022-07-24T14:14:07;40.50;46.40
11264;DHT22;5689;48.798;9.070;2022-07-24T14:16:36;41.10;46.40
11264;DHT22;5689;48.798;9.070;2022-07-24T14:19:05;41.40;46.70
11264;DHT22;5689;48.798;9.070;2022-07-24T14:21:33;42.70;44.40
11264;DHT22;5689;48.798;9.070;2022-07-24T14:24:01;41.70;45.40
11264;DHT22;5689;48.798;9.070;2022-07-24T14:26:29;43.10;43.80
11264;DHT22;5689;48.798;9.070;2022-07-24T14:28:57;40.60;45.30
11264;DHT22;5689;48.798;9.070;2022-07-24T14:31:25;38.20;49.10
11264;DHT22;5689;48.798;9.070;2022-07-24T14:33:55;39.70;47.00
11264;DHT22;5689;48.798;9.070;2022-07-24T14:36:29;39.90;46.10
11264;DHT22;5689;48.798;9.070;2022-07-24T14:38:57;39.50;47.30
11264;DHT22;5689;48.798;9.070;2022-07-24T14:41:25;39.50;47.80
11264;DHT22;5689;48.798;9.070;2022-07-24T14:43:53;42.00;45.20
11264;DHT22;5689;48.798;9.070;2022-07-24T14:46:21;41.60;44.50
11264;DHT22;5689;48.798;9.070;2022-07-24T14:48:49;40.90;44.80
11264;DHT22;5689;48.798;9.070;2022-07-24T14:51:18;40.70;43.90
11264;DHT22;5689;48.798;9.070;2022-07-24T14:53:46;42.30;43.40
11264;DHT22;5689;48.798;9.070;2022-07-24T14:56:14;41.90;43.40
11264;DHT22;5689;48.798;9.070;2022-07-24T14:58:42;41.30;44.50
11264;DHT22;5689;48.798;9.070;2022-07-24T15:01:10;40.00;46.30
11264;DHT22;5689;48.798;9.070;2022-07-24T15:03:38;42.00;44.40
11264;DHT22;5689;48.798;9.070;2022-07-24T15:06:06;43.50;42.70
11264;DHT22;5689;48.798;9.070;2022-07-24T15:08:36;43.20;41.90
11264;DHT22;5689;48.798;9.070;2022-07-24T15:11:07;41.40;43.60
11264;DHT22;5689;48.798;9.070;2022-07-24T15:13:35;41.60;43.80
11264;DHT22;5689;48.798;9.070;2022-07-24T15:16:05;39.90;45.20
11264;DHT22;5689;48.798;9.070;2022-07-24T15:18:36;40.90;43.90
11264;DHT22;5689;48.798;9.070;2022-07-24T15:21:05;38.70;46.00
11264;DHT22;5689;48.798;9.070;2022-07-24T15:23:33;37.10;48.90
11264;DHT22;5689;48.798;9.070;2022-07-24T15:26:03;35.90;51.30
11264;DHT22;5689;48.798;9.070;2022-07-24T15:28:31;35.80;51.00
11264;DHT22;5689;48.798;9.070;2022-07-24T15:30:59;35.20;51.40
11264;DHT22;5689;48.798;9.070;2022-07-24T15:33:27;35.20;52.50
11264;DHT22;5689;48.798;9.070;2022-07-24T15:35:55;34.90;52.40
11264;DHT22;5689;48.798;9.070;2022-07-24T15:38:23;34.40;53.20
11264;DHT22;5689;48.798;9.070;2022-07-24T15:40:51;34.50;53.20
11264;DHT22;5689;48.798;9.070;2022-07-24T15:43:21;34.60;53.40
11264;DHT22;5689;48.798;9.070;2022-07-24T15:45:49;34.50;53.00
11264;DHT22;5689;48.798;9.070;2022-07-24T15:48:17;35.30;52.70
11264;DHT22;5689;48.798;9.070;2022-07-24T15:50:45;37.20;49.90
11264;DHT22;5689;48.798;9.070;2022-07-24T15:53:13;38.50;47.70
11264;DHT22;5689;48.798;9.070;2022-07-24T15:55:41;38.60;47.60
11264;DHT22;5689;48.798;9.070;2022-07-24T15:58:09;39.50;46.50
11264;DHT22;5689;48.798;9.070;2022-07-24T16:00:38;37.80;48.80
11264;DHT22;5689;48.798;9.070;2022-07-24T16:03:06;37.90;47.40
11264;DHT22;5689;48.798;9.070;2022-07-24T16:05:35;38.40;47.70
11264;DHT22;5689;48.798;9.070;2022-07-24T16:08:03;37.00;48.30